Time,TemperatureF,DewpointF,PressureIn,WindDirection,WindDirectionDegrees,WindSpeedMPH,WindSpeedGustMPH,Humidity,HourlyPrecipIn,Conditions,Clouds,dailyrainin,SoftwareType,DateUTC
2013-07-20 00:12:00,72.0,70.0,-100.00,SE,145,0.0,1.0,92,0.00,,,0.02,,2013-07-20 04:12:00,
2013-07-20 00:22:00,72.0,70.0,-100.00,SE,145,0.0,1.0,92,0.00,,,0.02,,2013-07-20 04:22:00,
2013-07-20 00:44:00,71.0,69.0,-100.00,South,178,0.0,1.0,95,0.00,,,0.02,,2013-07-20 04:44:00,
2013-07-20 01:12:00,70.0,69.0,-100.00,WSW,237,4.0,7.0,96,0.00,,,0.02,,2013-07-20 05:12:00,
2013-07-20 01:32:00,71.0,68.0,-100.00,WSW,244,3.0,4.0,91,0.00,,,0.02,,2013-07-20 05:32:00,
2013-07-20 02:01:00,70.0,68.0,-100.00,ENE,66,1.0,2.0,93,0.00,,,0.02,,2013-07-20 06:01:00,
2013-07-20 02:11:00,70.0,68.0,-100.00,WSW,257,2.0,3.0,94,0.00,,,0.02,,2013-07-20 06:11:00,
2013-07-20 02:22:00,69.0,68.0,-100.00,West,274,3.0,4.0,95,0.00,,,0.02,,2013-07-20 06:22:00,
2013-07-20 02:32:00,70.0,68.0,-100.00,West,277,3.0,4.0,94,0.00,,,0.02,,2013-07-20 06:32:00,
2013-07-20 02:43:00,70.0,68.0,-100.00,West,277,3.0,4.0,94,0.00,,,0.02,,2013-07-20 06:43:00,
2013-07-20 02:52:00,70.0,68.0,-100.00,WNW,302,2.0,3.0,93,0.00,,,0.02,,2013-07-20 06:52:00,
2013-07-20 03:01:00,70.0,68.0,-100.00,West,265,4.0,5.0,92,0.00,,,0.02,,2013-07-20 07:01:00,
2013-07-20 03:12:00,70.0,68.0,-100.00,West,265,4.0,5.0,92,0.00,,,0.02,,2013-07-20 07:12:00,
2013-07-20 03:33:00,70.0,67.0,-100.00,East,86,1.0,2.0,92,0.00,,,0.02,,2013-07-20 07:33:00,
2013-07-20 03:44:00,70.0,67.0,-100.00,East,86,1.0,2.0,92,0.00,,,0.02,,2013-07-20 07:44:00,
2013-07-20 03:54:00,69.0,67.0,-100.00,SW,227,0.0,2.0,95,0.00,,,0.02,,2013-07-20 07:54:00,
2013-07-20 04:02:00,69.0,67.0,-100.00,West,265,1.0,1.0,96,0.00,,,0.02,,2013-07-20 08:02:00,
2013-07-20 04:11:00,69.0,67.0,-100.00,West,265,1.0,1.0,96,0.00,,,0.02,,2013-07-20 08:11:00,
2013-07-20 04:32:00,68.0,67.0,-100.00,WSW,246,1.0,2.0,97,0.00,,,0.02,,2013-07-20 08:32:00,
2013-07-20 04:44:00,68.0,67.0,-100.00,WSW,246,1.0,2.0,97,0.00,,,0.02,,2013-07-20 08:44:00,
2013-07-20 04:52:00,68.0,67.0,-100.00,WSW,258,0.0,2.0,97,0.00,,,0.02,,2013-07-20 08:52:00,
2013-07-20 05:02:00,68.0,67.0,-100.00,West,281,1.0,2.0,97,0.00,,,0.02,,2013-07-20 09:02:00,
2013-07-20 05:11:00,68.0,67.0,-100.00,West,281,1.0,2.0,97,0.00,,,0.02,,2013-07-20 09:11:00,
2013-07-20 05:33:00,68.0,67.0,-100.00,ENE,69,1.0,2.0,97,0.00,,,0.02,,2013-07-20 09:33:00,
2013-07-20 05:43:00,68.0,67.0,-100.00,ENE,69,1.0,2.0,97,0.00,,,0.02,,2013-07-20 09:43:00,
2013-07-20 06:01:00,68.0,67.0,-100.00,NW,322,0.0,0.0,96,0.00,,,0.02,,2013-07-20 10:01:00,
2013-07-20 06:11:00,68.0,67.0,-100.00,NW,322,0.0,0.0,96,0.00,,,0.02,,2013-07-20 10:11:00,
2013-07-20 06:42:00,68.0,67.0,-100.00,SSW,198,0.0,1.0,95,0.00,,,0.02,,2013-07-20 10:42:00,
2013-07-20 06:52:00,69.0,67.0,-100.00,ESE,107,2.0,3.0,94,0.00,,,0.02,,2013-07-20 10:52:00,
2013-07-20 07:11:00,69.0,68.0,-100.00,WNW,291,2.0,3.0,95,0.00,,,0.02,,2013-07-20 11:11:00,
2013-07-20 07:22:00,69.0,68.0,-100.00,WNW,291,2.0,3.0,95,0.00,,,0.02,,2013-07-20 11:22:00,
2013-07-20 07:43:00,68.0,67.0,-100.00,SSE,158,0.0,0.0,95,0.00,,,0.02,,2013-07-20 11:43:00,
2013-07-20 08:01:00,69.0,67.0,-100.00,WSW,258,0.0,1.0,95,0.00,,,0.02,,2013-07-20 12:01:00,
2013-07-20 08:11:00,69.0,67.0,-100.00,South,172,0.0,1.0,95,0.00,,,0.02,,2013-07-20 12:11:00,
2013-07-20 08:22:00,69.0,67.0,-100.00,South,172,0.0,1.0,95,0.00,,,0.02,,2013-07-20 12:22:00,
2013-07-20 09:01:00,72.0,68.0,-100.00,ENE,72,0.0,1.0,89,0.00,,,0.02,,2013-07-20 13:01:00,
2013-07-20 09:11:00,70.0,68.0,-100.00,ENE,69,0.0,1.0,93,0.00,,,0.02,,2013-07-20 13:11:00,
2013-07-20 09:22:00,72.0,69.0,-100.00,WSW,243,1.0,2.0,91,0.00,,,0.02,,2013-07-20 13:22:00,
2013-07-20 09:43:00,72.0,68.0,-100.00,SW,229,1.0,1.0,87,0.00,,,0.02,,2013-07-20 13:43:00,
2013-07-20 10:02:00,71.0,69.0,-100.00,South,182,0.0,1.0,91,0.00,,,0.02,,2013-07-20 14:02:00,
2013-07-20 10:11:00,71.0,68.0,-100.00,SE,134,0.0,1.0,92,0.00,,,0.02,,2013-07-20 14:11:00,
2013-07-20 10:43:00,73.0,70.0,-100.00,SSW,203,2.0,3.0,90,0.00,,,0.02,,2013-07-20 14:43:00,
2013-07-20 10:53:00,74.0,70.0,-100.00,SSW,208,2.0,4.0,87,0.00,,,0.02,,2013-07-20 14:53:00,
2013-07-20 11:01:00,74.0,70.0,-100.00,SSW,208,2.0,4.0,87,0.00,,,0.02,,2013-07-20 15:01:00,
2013-07-20 11:11:00,74.0,70.0,-100.00,SSW,208,2.0,4.0,87,0.00,,,0.02,,2013-07-20 15:11:00,
2013-07-20 11:22:00,76.0,71.0,-100.00,SSW,198,1.0,4.0,84,0.00,,,0.02,,2013-07-20 15:22:00,
2013-07-20 11:33:00,78.0,71.0,-100.00,SW,219,3.0,6.0,80,0.00,,,0.02,,2013-07-20 15:33:00,
2013-07-20 11:44:00,78.0,71.0,-100.00,SW,219,3.0,6.0,80,0.00,,,0.02,,2013-07-20 15:44:00,
2013-07-20 11:53:00,78.0,71.0,-100.00,South,184,0.0,2.0,81,0.00,,,0.02,,2013-07-20 15:53:00,
2013-07-20 12:01:00,80.0,71.0,-100.00,SSW,198,2.0,4.0,76,0.00,,,0.02,,2013-07-20 16:01:00,
2013-07-20 12:11:00,80.0,71.0,-100.00,SSW,198,2.0,4.0,76,0.00,,,0.02,,2013-07-20 16:11:00,
2013-07-20 12:32:00,80.0,71.0,-100.00,SW,222,3.0,5.0,73,0.00,,,0.02,,2013-07-20 16:32:00,
2013-07-20 12:43:00,80.0,71.0,-100.00,SW,222,3.0,5.0,73,0.00,,,0.02,,2013-07-20 16:43:00,
2013-07-20 12:52:00,80.0,71.0,-100.00,SSW,206,2.0,5.0,74,0.00,,,0.02,,2013-07-20 16:52:00,
2013-07-20 13:02:00,81.0,71.0,-100.00,SSW,208,4.0,7.0,72,0.00,,,0.02,,2013-07-20 17:02:00,
2013-07-20 13:11:00,81.0,71.0,-100.00,SSW,208,4.0,7.0,72,0.00,,,0.02,,2013-07-20 17:11:00,
2013-07-20 13:32:00,82.0,71.0,-100.00,SW,224,3.0,6.0,70,0.00,,,0.01,,2013-07-20 17:32:00,
2013-07-20 13:43:00,82.0,71.0,-100.00,SW,224,3.0,6.0,70,0.00,,,0.01,,2013-07-20 17:43:00,
2013-07-20 13:53:00,82.0,71.0,-100.00,SW,224,3.0,6.0,70,0.00,,,0.01,,2013-07-20 17:53:00,
2013-07-20 14:01:00,83.0,68.0,-100.00,WSW,244,4.0,6.0,60,0.00,,,0.00,,2013-07-20 18:01:00,
2013-07-20 14:12:00,83.0,68.0,-100.00,WSW,244,4.0,6.0,60,0.00,,,0.00,,2013-07-20 18:12:00,
2013-07-20 14:36:00,81.0,69.0,-100.00,South,189,1.0,4.0,65,0.00,,,0.00,,2013-07-20 18:36:00,
2013-07-20 14:47:00,81.0,69.0,-100.00,South,189,1.0,4.0,65,0.00,,,0.00,,2013-07-20 18:47:00,
2013-07-20 14:59:00,82.0,70.0,-100.00,WSW,244,4.0,7.0,66,0.00,,,0.00,,2013-07-20 18:59:00,
2013-07-20 15:16:00,81.0,68.0,-100.00,SW,220,2.0,4.0,64,0.00,,,0.00,,2013-07-20 19:16:00,
2013-07-20 15:26:00,81.0,68.0,-100.00,SW,220,2.0,4.0,64,0.00,,,0.00,,2013-07-20 19:26:00,
2013-07-20 15:35:00,81.0,68.0,-100.00,SW,216,4.0,6.0,65,0.00,,,0.00,,2013-07-20 19:35:00,
2013-07-20 15:44:00,81.0,68.0,-100.00,SW,216,4.0,6.0,65,0.00,,,0.00,,2013-07-20 19:44:00,
2013-07-20 15:57:00,80.0,67.0,-100.00,West,265,3.0,5.0,65,0.00,,,0.00,,2013-07-20 19:57:00,
2013-07-20 16:06:00,75.0,66.0,-100.00,WNW,285,12.0,17.0,73,0.71,,,0.02,,2013-07-20 20:06:00,
2013-07-20 16:15:00,75.0,66.0,-100.00,WNW,285,12.0,17.0,73,0.71,,,0.02,,2013-07-20 20:15:00,
2013-07-20 16:34:00,74.0,68.0,-100.00,NNW,344,2.0,3.0,81,0.00,,,0.11,,2013-07-20 20:34:00,
2013-07-20 16:45:00,74.0,68.0,-100.00,NNW,344,2.0,3.0,81,0.00,,,0.11,,2013-07-20 20:45:00,
2013-07-20 16:58:00,77.0,68.0,-100.00,SSE,160,2.0,3.0,73,0.00,,,0.11,,2013-07-20 20:58:00,
2013-07-20 17:06:00,79.0,70.0,-100.00,SSE,164,1.0,1.0,74,0.00,,,0.11,,2013-07-20 21:06:00,
2013-07-20 17:15:00,79.0,70.0,-100.00,SSE,164,1.0,1.0,74,0.00,,,0.11,,2013-07-20 21:15:00,
2013-07-20 17:46:00,83.0,69.0,-100.00,SW,226,2.0,4.0,63,0.00,,,0.11,,2013-07-20 21:46:00,
2013-07-20 18:07:00,82.0,70.0,-100.00,SW,220,3.0,5.0,67,0.00,,,0.11,,2013-07-20 22:07:00,
2013-07-20 18:35:00,83.0,69.0,-100.00,SSW,209,2.0,4.0,63,0.00,,,0.11,,2013-07-20 22:35:00,
2013-07-20 18:47:00,83.0,69.0,-100.00,SSW,209,2.0,4.0,63,0.00,,,0.11,,2013-07-20 22:47:00,
2013-07-20 18:57:00,82.0,70.0,-100.00,SSW,206,1.0,3.0,67,0.00,,,0.11,,2013-07-20 22:57:00,
2013-07-20 19:06:00,82.0,70.0,-100.00,SW,220,3.0,6.0,68,0.00,,,0.11,,2013-07-20 23:06:00,
2013-07-20 19:17:00,82.0,70.0,-100.00,SW,220,3.0,6.0,68,0.00,,,0.11,,2013-07-20 23:17:00,
2013-07-20 19:37:00,81.0,68.0,-100.00,WSW,258,4.0,5.0,65,0.00,,,0.11,,2013-07-20 23:37:00,
2013-07-20 19:45:00,81.0,68.0,-100.00,WSW,258,4.0,5.0,65,0.00,,,0.11,,2013-07-20 23:45:00,
2013-07-20 19:57:00,79.0,68.0,-100.00,West,260,4.0,6.0,68,0.00,,,0.11,,2013-07-20 23:57:00,
2013-07-20 20:08:00,78.0,69.0,-100.00,West,268,5.0,7.0,73,0.00,,,0.11,,2013-07-21 00:08:00,
2013-07-20 20:18:00,78.0,69.0,-100.00,West,268,5.0,7.0,73,0.00,,,0.11,,2013-07-21 00:18:00,
2013-07-20 20:45:00,78.0,69.0,-100.00,WSW,256,5.0,7.0,73,0.00,,,0.11,,2013-07-21 00:45:00,
2013-07-20 20:56:00,78.0,69.0,-100.00,West,263,4.0,6.0,75,0.00,,,0.11,,2013-07-21 00:56:00,
2013-07-20 21:06:00,77.0,70.0,-100.00,West,281,2.0,3.0,79,0.00,,,0.11,,2013-07-21 01:06:00,
2013-07-20 21:13:00,77.0,70.0,-100.00,West,281,2.0,3.0,79,0.00,,,0.11,,2013-07-21 01:13:00,
2013-07-20 21:36:00,75.0,70.0,-100.00,NW,320,2.0,3.0,83,0.00,,,0.11,,2013-07-21 01:36:00,
2013-07-20 21:47:00,-999.0,-99.9,-100.00,NW,320,2.0,3.0,-999,-99.99,,,-99.99,,2013-07-21 01:47:00,
2013-07-20 21:59:00,75.0,70.0,-100.00,WNW,302,2.0,4.0,82,0.00,,,0.11,,2013-07-21 01:59:00,
2013-07-20 22:06:00,75.0,70.0,-100.00,WNW,295,1.0,3.0,84,0.00,,,0.11,,2013-07-21 02:06:00,
2013-07-20 22:18:00,75.0,70.0,-100.00,WNW,295,1.0,3.0,84,0.00,,,0.11,,2013-07-21 02:18:00,
2013-07-20 22:36:00,75.0,70.0,-100.00,WNW,291,3.0,4.0,85,0.00,,,0.11,,2013-07-21 02:36:00,
2013-07-20 22:44:00,75.0,70.0,-100.00,WNW,291,3.0,4.0,85,0.00,,,0.11,,2013-07-21 02:44:00,
2013-07-20 22:58:00,75.0,70.0,-100.00,WNW,285,2.0,3.0,84,0.00,,,0.11,,2013-07-21 02:58:00,
2013-07-20 23:05:00,74.0,69.0,-100.00,NW,316,2.0,2.0,86,0.00,,,0.11,,2013-07-21 03:05:00,
2013-07-20 23:14:00,74.0,69.0,-100.00,NW,316,2.0,2.0,86,0.00,,,0.11,,2013-07-21 03:14:00,
2013-07-20 23:36:00,73.0,70.0,-100.00,WNW,287,2.0,3.0,88,0.00,,,0.11,,2013-07-21 03:36:00,
2013-07-20 23:45:00,73.0,70.0,-100.00,WNW,287,2.0,3.0,88,0.00,,,0.11,,2013-07-21 03:45:00,